Time;durP1;ratioP1;P1;durP2;ratioP2;P2;SDS_P1;SDS_P2;PMS_P1;PMS_P2;Temp;Humidity;BMP_temperature;BMP_pressure;BME280_temperature;BME280_humidity;BME280_pressure;Samples;Min_cycle;Max_cycle;Signal;HPM_P1;HPM_P2
2024/02/06 00:00:02;;;;;;;8.05;5.85;;;10.30;99.90;;;;;;4972958;28;20031;-83
2024/02/06 00:02:28;;;;;;;8.23;5.80;;;10.30;99.90;;;;;;4973159;28;20034;-83
2024/02/06 00:04:53;;;;;;;9.68;5.95;;;10.30;99.90;;;;;;4972907;28;20437;-84
2024/02/06 00:07:19;;;;;;;10.13;5.70;;;10.30;99.90;;;;;;4973481;28;20034;-84
2024/02/06 00:09:45;;;;;;;9.25;6.22;;;10.30;99.90;;;;;;4940980;28;20054;-84
2024/02/06 00:12:10;;;;;;;10.43;5.50;;;10.30;99.90;;;;;;4956904;28;20394;-83
2024/02/06 00:14:36;;;;;;;10.27;5.90;;;10.30;99.90;;;;;;4976213;28;20066;-84
2024/02/06 00:17:02;;;;;;;8.35;6.35;;;10.30;99.90;;;;;;4976457;28;20037;-84
2024/02/06 00:19:28;;;;;;;10.13;6.35;;;10.30;99.90;;;;;;4976555;28;20225;-83
2024/02/06 00:21:54;;;;;;;10.38;7.05;;;10.30;99.90;;;;;;4960664;28;20383;-83
2024/02/06 00:24:19;;;;;;;11.38;6.88;;;10.40;99.90;;;;;;4976578;28;20122;-83
2024/02/06 00:26:46;;;;;;;8.48;6.20;;;10.30;99.90;;;;;;4960927;28;20050;-83
2024/02/06 00:29:12;;;;;;;12.07;6.75;;;10.40;99.90;;;;;;4976410;28;20364;-82
2024/02/06 00:31:37;;;;;;;11.20;6.10;;;10.40;99.90;;;;;;4976677;28;20364;-83
2024/02/06 00:34:03;;;;;;;8.68;6.68;;;10.40;99.90;;;;;;4944943;28;20085;-84
2024/02/06 00:36:29;;;;;;;10.23;6.47;;;10.40;99.90;;;;;;4960968;28;20435;-84
2024/02/06 00:38:54;;;;;;;8.95;5.90;;;10.30;99.90;;;;;;4945307;28;20034;-84
2024/02/06 00:41:20;;;;;;;7.55;6.05;;;10.40;99.90;;;;;;4978502;28;20050;-84
2024/02/06 00:43:47;;;;;;;10.32;6.05;;;10.40;99.90;;;;;;4989478;28;20090;-84
2024/02/06 00:46:12;;;;;;;9.98;6.93;;;10.40;99.90;;;;;;4985141;28;20022;-83
2024/02/06 00:48:38;;;;;;;11.63;7.10;;;10.40;99.90;;;;;;4984759;28;20015;-82
2024/02/06 00:51:04;;;;;;;11.35;7.20;;;10.40;99.90;;;;;;5000502;28;20027;-82
2024/02/06 00:53:29;;;;;;;11.95;7.47;;;10.40;99.90;;;;;;4991982;28;20038;-83
2024/02/06 00:55:55;;;;;;;14.10;8.30;;;10.40;99.90;;;;;;4976925;28;20459;-83
2024/02/06 00:58:21;;;;;;;10.15;7.40;;;10.40;99.90;;;;;;4960047;28;20063;-85
2024/02/06 01:00:46;;;;;;;7.85;6.72;;;10.40;99.90;;;;;;4959800;28;20372;-84
2024/02/06 01:03:12;;;;;;;9.20;6.45;;;10.40;99.90;;;;;;4959283;28;20113;-84
2024/02/06 01:05:38;;;;;;;9.38;7.03;;;10.30;99.90;;;;;;4975514;28;20499;-84
2024/02/06 01:08:04;;;;;;;10.23;7.20;;;10.40;99.90;;;;;;4943886;28;20026;-83
2024/02/06 01:10:29;;;;;;;10.50;7.40;;;10.40;99.90;;;;;;4943622;28;20061;-84
2024/02/06 01:12:55;;;;;;;10.27;7.22;;;10.40;99.90;;;;;;4959306;28;20039;-83
2024/02/06 01:15:20;;;;;;;10.88;7.57;;;10.40;99.90;;;;;;4975809;28;20039;-83
2024/02/06 01:17:46;;;;;;;12.13;6.72;;;10.30;99.90;;;;;;4943698;28;20034;-84
2024/02/06 01:20:12;;;;;;;9.68;5.95;;;10.30;99.90;;;;;;4975548;28;20085;-83
2024/02/06 01:22:37;;;;;;;9.15;6.13;;;10.40;99.90;;;;;;4957840;28;20114;-84
2024/02/06 01:25:04;;;;;;;11.13;6.70;;;10.30;99.90;;;;;;4973638;28;20137;-84
2024/02/06 01:27:29;;;;;;;10.38;6.75;;;10.40;99.90;;;;;;4975410;28;20497;-84
2024/02/06 01:29:55;;;;;;;11.80;6.20;;;10.40;99.90;;;;;;4959356;28;20032;-83
2024/02/06 01:32:20;;;;;;;13.75;6.45;;;10.40;99.90;;;;;;4959042;28;20030;-83
2024/02/06 01:34:46;;;;;;;10.55;6.80;;;10.40;99.90;;;;;;4959514;28;20117;-83
2024/02/06 01:37:12;;;;;;;11.68;7.20;;;10.40;99.90;;;;;;4976861;28;20077;-83
2024/02/06 01:39:38;;;;;;;12.02;7.18;;;10.40;99.90;;;;;;4943099;28;20144;-84
2024/02/06 01:42:04;;;;;;;8.90;5.97;;;10.40;99.90;;;;;;4975136;28;20185;-83
2024/02/06 01:44:29;;;;;;;11.00;6.40;;;10.40;99.90;;;;;;4976098;28;20546;-84
2024/02/06 01:46:56;;;;;;;8.20;5.80;;;10.40;99.90;;;;;;4975095;28;20113;-84
2024/02/06 01:49:23;;;;;;;15.60;6.68;;;10.40;99.90;;;;;;4974826;28;20026;-83
2024/02/06 01:51:49;;;;;;;11.02;6.72;;;10.40;99.90;;;;;;4976445;28;20033;-84
2024/02/06 01:54:16;;;;;;;9.57;6.13;;;10.40;99.90;;;;;;4974751;28;20082;-84
2024/02/06 01:56:43;;;;;;;9.10;5.45;;;10.40;99.90;;;;;;4977058;28;20038;-83
2024/02/06 01:59:10;;;;;;;9.82;6.05;;;10.50;99.90;;;;;;4962506;28;20461;-84
2024/02/06 02:01:35;;;;;;;10.05;6.03;;;10.50;99.90;;;;;;4977997;28;20081;-82
2024/02/06 02:04:02;;;;;;;12.07;6.35;;;10.50;99.90;;;;;;4962086;28;20034;-82
2024/02/06 02:06:28;;;;;;;10.52;5.68;;;10.50;99.90;;;;;;4994182;28;20031;-82
2024/02/06 02:08:54;;;;;;;10.75;6.00;;;10.50;99.90;;;;;;4995933;28;20027;-82
2024/02/06 02:11:20;;;;;;;9.35;5.60;;;10.50;99.90;;;;;;4995484;28;20082;-83
2024/02/06 02:13:46;;;;;;;10.18;5.65;;;10.50;99.90;;;;;;5000219;28;20041;-83
2024/02/06 02:16:12;;;;;;;10.93;5.47;;;10.50;99.90;;;;;;4996736;28;20037;-83
2024/02/06 02:18:37;;;;;;;10.25;5.78;;;10.50;99.90;;;;;;4977016;28;20022;-83
2024/02/06 02:21:09;;;;;;;15.55;5.65;;;10.50;99.90;;;;;;5002882;28;20017;-83
2024/02/06 02:23:36;;;;;;;9.07;5.72;;;10.50;99.90;;;;;;5017472;28;20030;-84
2024/02/06 02:26:02;;;;;;;11.65;5.18;;;10.50;99.90;;;;;;4962842;28;20034;-84
2024/02/06 02:28:28;;;;;;;10.52;4.97;;;10.50;99.90;;;;;;4977868;28;20450;-83
2024/02/06 02:30:56;;;;;;;11.30;5.32;;;10.50;99.90;;;;;;4961183;28;20418;-84
2024/02/06 02:33:26;;;;;;;8.07;5.10;;;10.50;99.90;;;;;;4960212;28;20512;-82
2024/02/06 02:35:51;;;;;;;9.80;5.20;;;10.50;99.90;;;;;;4994379;28;20030;-82
2024/02/06 02:38:19;;;;;;;8.05;4.20;;;10.50;99.90;;;;;;4976971;28;20470;-84
2024/02/06 02:40:45;;;;;;;9.15;4.95;;;10.50;99.90;;;;;;4961593;28;20027;-83
2024/02/06 02:43:11;;;;;;;9.32;4.38;;;10.50;99.90;;;;;;4976885;28;20041;-83
2024/02/06 02:45:36;;;;;;;13.20;4.60;;;10.50;99.90;;;;;;4961307;28;20038;-83
2024/02/06 02:48:02;;;;;;;7.82;4.20;;;10.60;99.90;;;;;;4960608;28;20027;-83
2024/02/06 02:50:28;;;;;;;8.80;3.92;;;10.50;99.90;;;;;;4961389;28;20573;-83
2024/02/06 02:52:54;;;;;;;11.52;4.70;;;10.50;99.90;;;;;;4961324;28;20023;-83
2024/02/06 02:55:19;;;;;;;10.05;4.32;;;10.50;99.90;;;;;;4961516;28;20057;-83
2024/02/06 02:57:45;;;;;;;14.23;4.65;;;10.50;99.90;;;;;;4994043;28;20084;-83
2024/02/06 03:00:11;;;;;;;10.48;4.63;;;10.50;99.90;;;;;;4977244;28;20207;-83
2024/02/06 03:02:37;;;;;;;11.02;4.43;;;10.50;99.90;;;;;;4976505;28;20026;-82
2024/02/06 03:05:03;;;;;;;9.65;4.00;;;10.50;99.90;;;;;;4977136;28;20045;-83
2024/02/06 03:07:29;;;;;;;12.32;5.22;;;10.60;99.90;;;;;;4976597;28;20113;-83
2024/02/06 03:09:55;;;;;;;9.75;4.53;;;10.60;99.90;;;;;;4976472;28;20014;-83
2024/02/06 03:12:20;;;;;;;7.40;3.72;;;10.60;99.90;;;;;;4961041;28;20030;-82
2024/02/06 03:14:46;;;;;;;9.50;3.92;;;10.60;99.90;;;;;;4993972;28;20066;-82
2024/02/06 03:17:12;;;;;;;8.02;3.97;;;10.60;99.90;;;;;;4960762;28;20035;-82
2024/02/06 03:19:39;;;;;;;11.55;4.35;;;10.70;99.90;;;;;;4976577;28;20026;-83
2024/02/06 03:22:05;;;;;;;10.73;4.38;;;10.70;99.90;;;;;;4961508;28;20389;-83
2024/02/06 03:24:31;;;;;;;9.35;4.03;;;10.70;99.90;;;;;;4976501;28;20030;-83
2024/02/06 03:26:56;;;;;;;8.00;3.80;;;10.70;99.90;;;;;;4977360;28;20429;-83
2024/02/06 03:29:22;;;;;;;9.50;4.70;;;10.70;99.90;;;;;;4960622;28;20433;-82
2024/02/06 03:31:48;;;;;;;11.15;4.28;;;10.70;99.90;;;;;;4976493;28;20161;-83
2024/02/06 03:34:13;;;;;;;10.27;4.22;;;10.70;99.90;;;;;;4977005;28;20164;-83
2024/02/06 03:36:42;;;;;;;12.73;4.50;;;10.70;99.90;;;;;;4976920;28;20026;-84
2024/02/06 03:39:12;;;;;;;10.63;4.40;;;10.70;99.90;;;;;;4961082;28;20121;-84
2024/02/06 03:41:38;;;;;;;7.70;4.50;;;10.70;99.90;;;;;;4977904;28;20026;-85
2024/02/06 03:44:07;;;;;;;10.57;4.50;;;10.70;99.90;;;;;;4978706;28;20485;-84
2024/02/06 03:46:35;;;;;;;11.88;4.53;;;10.70;99.90;;;;;;4989535;28;20086;-83
2024/02/06 03:49:00;;;;;;;11.95;4.85;;;10.70;99.90;;;;;;5003978;28;20017;-82
2024/02/06 03:51:26;;;;;;;12.68;5.47;;;10.70;99.90;;;;;;5005624;28;20030;-82
2024/02/06 03:53:52;;;;;;;10.35;5.15;;;10.70;99.90;;;;;;5021386;28;20023;-82
2024/02/06 03:56:18;;;;;;;10.65;5.18;;;10.70;99.90;;;;;;4981313;28;20480;-83
2024/02/06 03:58:44;;;;;;;12.75;6.25;;;10.70;99.90;;;;;;4980858;28;20050;-83
2024/02/06 04:01:09;;;;;;;10.07;5.75;;;10.70;99.90;;;;;;4980906;28;20031;-83
2024/02/06 04:03:35;;;;;;;11.35;5.40;;;10.70;99.90;;;;;;4963667;28;20546;-81
2024/02/06 04:06:01;;;;;;;14.32;6.00;;;10.70;99.90;;;;;;4964365;28;20181;-83
2024/02/06 04:08:27;;;;;;;8.48;5.35;;;10.70;99.90;;;;;;4980200;28;20031;-82
2024/02/06 04:10:55;;;;;;;10.15;5.80;;;10.70;99.90;;;;;;4964188;28;20122;-83
2024/02/06 04:13:21;;;;;;;10.05;5.47;;;10.70;99.90;;;;;;4979956;28;20037;-83
2024/02/06 04:15:47;;;;;;;12.57;6.03;;;10.70;99.90;;;;;;4997216;28;20030;-83
2024/02/06 04:18:12;;;;;;;10.70;5.65;;;10.70;99.90;;;;;;4963917;28;20377;-83
2024/02/06 04:20:38;;;;;;;9.00;6.07;;;10.70;99.90;;;;;;4979525;28;20367;-83
2024/02/06 04:23:04;;;;;;;9.10;5.22;;;10.70;99.90;;;;;;4979825;28;20038;-84
2024/02/06 04:25:30;;;;;;;9.95;5.05;;;10.70;99.90;;;;;;4979803;28;20097;-83
2024/02/06 04:27:56;;;;;;;10.23;5.18;;;10.70;99.90;;;;;;4963458;28;20027;-82
2024/02/06 04:30:21;;;;;;;8.05;5.05;;;10.70;99.90;;;;;;4979838;28;20128;-84
2024/02/06 04:32:48;;;;;;;11.30;5.30;;;10.70;99.90;;;;;;4963516;28;20041;-84
2024/02/06 04:35:14;;;;;;;13.07;6.10;;;10.70;99.90;;;;;;4963631;28;20500;-84
2024/02/06 04:37:41;;;;;;;10.18;5.85;;;10.70;99.90;;;;;;4979479;28;20474;-84
2024/02/06 04:40:07;;;;;;;10.45;5.60;;;10.70;99.90;;;;;;4963532;28;20035;-84
2024/02/06 04:42:32;;;;;;;9.50;5.40;;;10.70;99.90;;;;;;4963237;28;20058;-84
2024/02/06 04:44:58;;;;;;;10.80;5.18;;;10.60;99.90;;;;;;4962474;28;20442;-81
2024/02/06 04:47:24;;;;;;;11.65;5.78;;;10.60;99.90;;;;;;4963135;28;20126;-83
2024/02/06 04:49:49;;;;;;;11.80;5.07;;;10.70;99.90;;;;;;4963254;28;20037;-83
2024/02/06 04:52:15;;;;;;;12.65;5.70;;;10.70;99.90;;;;;;4963278;28;20030;-83
2024/02/06 04:54:41;;;;;;;9.20;5.38;;;10.60;99.90;;;;;;4963055;28;20031;-83
2024/02/06 04:57:06;;;;;;;10.55;4.90;;;10.60;99.90;;;;;;4978895;28;20046;-83
2024/02/06 04:59:33;;;;;;;12.52;4.78;;;10.70;99.90;;;;;;4978957;28;20038;-84
2024/02/06 05:01:58;;;;;;;11.45;5.50;;;10.70;99.90;;;;;;4963397;28;20037;-84
2024/02/06 05:04:24;;;;;;;10.88;5.45;;;10.70;99.90;;;;;;4962975;28;20030;-83
2024/02/06 05:06:50;;;;;;;10.57;5.25;;;10.70;99.90;;;;;;4962932;28;20030;-84
2024/02/06 05:09:16;;;;;;;9.50;5.57;;;10.70;99.90;;;;;;4979508;28;20045;-83
2024/02/06 05:11:42;;;;;;;10.57;5.15;;;10.70;99.90;;;;;;4963711;28;20038;-84
2024/02/06 05:14:08;;;;;;;10.82;5.18;;;10.70;99.90;;;;;;4999459;28;20037;-84
2024/02/06 05:16:36;;;;;;;12.95;5.70;;;10.60;99.90;;;;;;4966116;28;20030;-82
2024/02/06 05:19:02;;;;;;;14.05;5.13;;;10.60;99.90;;;;;;4980744;28;20102;-83
2024/02/06 05:21:27;;;;;;;9.15;4.88;;;10.70;99.90;;;;;;5003942;28;20006;-82
2024/02/06 05:23:53;;;;;;;10.63;5.10;;;10.70;99.90;;;;;;4987421;28;20036;-82
2024/02/06 05:26:19;;;;;;;12.00;5.50;;;10.70;99.90;;;;;;5003330;28;20114;-83
2024/02/06 05:28:44;;;;;;;12.68;5.45;;;10.70;99.90;;;;;;5001094;28;20030;-83
2024/02/06 05:31:10;;;;;;;10.60;5.28;;;10.70;99.90;;;;;;4984750;28;20426;-83
2024/02/06 05:33:35;;;;;;;10.48;5.70;;;10.70;99.90;;;;;;4994323;28;20378;-83
2024/02/06 05:36:01;;;;;;;10.52;5.53;;;10.70;99.90;;;;;;4978490;28;20034;-82
2024/02/06 05:38:28;;;;;;;11.32;5.63;;;10.70;99.90;;;;;;4962063;28;20026;-84
2024/02/06 05:40:54;;;;;;;11.73;6.32;;;10.70;99.90;;;;;;4962116;28;20038;-82
2024/02/06 05:43:19;;;;;;;11.15;6.13;;;10.70;99.90;;;;;;4977707;28;20034;-83
2024/02/06 05:45:45;;;;;;;10.30;6.50;;;10.70;99.90;;;;;;4961955;28;20462;-82
2024/02/06 05:48:11;;;;;;;14.10;6.35;;;10.60;99.90;;;;;;4977631;28;20130;-83
2024/02/06 05:50:36;;;;;;;13.63;7.13;;;10.70;99.90;;;;;;4977404;28;20042;-81
2024/02/06 05:53:02;;;;;;;10.38;6.78;;;10.70;99.90;;;;;;4961834;28;20064;-82
2024/02/06 05:55:31;;;;;;;12.27;6.25;;;10.70;99.90;;;;;;4977908;28;20030;-82
2024/02/06 05:57:56;;;;;;;10.88;6.60;;;10.60;99.90;;;;;;4974530;28;20178;-83
2024/02/06 06:00:26;;;;;;;9.25;5.90;;;10.60;99.90;;;;;;4975686;28;20081;-85
2024/02/06 06:02:53;;;;;;;11.82;6.30;;;10.60;99.90;;;;;;4959207;28;20027;-84
2024/02/06 06:05:22;;;;;;;10.23;6.38;;;10.60;99.90;;;;;;4976198;28;20166;-83
2024/02/06 06:07:48;;;;;;;9.23;5.80;;;10.60;99.90;;;;;;4974384;28;20034;-82
2024/02/06 06:10:15;;;;;;;10.30;6.30;;;10.60;99.90;;;;;;4975231;28;20031;-84
2024/02/06 06:12:41;;;;;;;11.95;6.97;;;10.60;99.90;;;;;;4974220;28;20023;-84
2024/02/06 06:15:07;;;;;;;13.05;6.20;;;10.60;99.90;;;;;;4990424;28;20278;-83
2024/02/06 06:17:32;;;;;;;12.93;6.03;;;10.50;99.90;;;;;;4974023;28;20387;-84
2024/02/06 06:19:58;;;;;;;13.48;6.28;;;10.60;99.90;;;;;;4974113;28;20038;-84
2024/02/06 06:22:23;;;;;;;11.45;6.05;;;10.50;99.90;;;;;;4975238;28;20023;-83
2024/02/06 06:24:49;;;;;;;12.93;6.03;;;10.50;99.90;;;;;;4942039;28;20039;-82
2024/02/06 06:27:15;;;;;;;11.02;5.93;;;10.50;99.90;;;;;;4973955;28;20043;-84
2024/02/06 06:29:41;;;;;;;10.93;5.43;;;10.50;99.90;;;;;;4957771;28;20038;-83
2024/02/06 06:32:07;;;;;;;8.52;5.72;;;10.50;99.90;;;;;;4958113;28;20026;-84
2024/02/06 06:34:33;;;;;;;12.25;6.25;;;10.60;99.90;;;;;;4942264;28;20057;-84
2024/02/06 06:36:58;;;;;;;11.55;6.40;;;10.60;99.90;;;;;;4974345;28;20030;-84
2024/02/06 06:39:24;;;;;;;11.13;5.90;;;10.60;99.90;;;;;;4958226;28;20031;-84
2024/02/06 06:41:53;;;;;;;11.30;6.13;;;10.50;99.90;;;;;;4975503;28;20038;-83
2024/02/06 06:44:18;;;;;;;11.77;6.30;;;10.50;99.90;;;;;;4974120;28;20096;-83
2024/02/06 06:46:46;;;;;;;12.65;6.35;;;10.60;99.90;;;;;;4975503;28;20493;-84
2024/02/06 06:49:11;;;;;;;14.73;6.70;;;10.50;99.90;;;;;;4958987;28;20082;-84
2024/02/06 06:51:37;;;;;;;13.50;6.50;;;10.50;99.90;;;;;;4980817;28;20031;-84
2024/02/06 06:54:03;;;;;;;10.43;5.20;;;10.50;99.90;;;;;;4962659;28;20014;-85
2024/02/06 06:56:28;;;;;;;8.95;4.65;;;10.50;99.90;;;;;;4982271;28;20079;-84
2024/02/06 06:58:54;;;;;;;13.57;5.72;;;10.50;99.90;;;;;;4965475;28;20098;-85
2024/02/06 07:01:20;;;;;;;10.68;4.57;;;10.50;99.90;;;;;;4975674;28;20514;-85
2024/02/06 07:03:46;;;;;;;13.48;5.53;;;10.50;99.90;;;;;;4974168;28;20053;-85
2024/02/06 07:06:12;;;;;;;15.05;5.68;;;10.50;99.90;;;;;;4941822;28;20478;-84
2024/02/06 07:08:38;;;;;;;9.80;5.03;;;10.50;99.90;;;;;;4973960;28;20034;-85
2024/02/06 07:11:04;;;;;;;12.63;5.20;;;10.60;99.90;;;;;;4973928;28;20034;-83
2024/02/06 07:13:31;;;;;;;14.30;5.70;;;10.60;99.90;;;;;;4941832;28;20037;-84
2024/02/06 07:15:59;;;;;;;8.90;4.90;;;10.50;99.90;;;;;;4974447;28;20038;-83
2024/02/06 07:18:25;;;;;;;13.80;5.35;;;10.50;99.90;;;;;;4973733;28;20508;-84
2024/02/06 07:20:51;;;;;;;11.25;4.78;;;10.50;99.90;;;;;;4957655;28;20121;-84
2024/02/06 07:23:16;;;;;;;11.82;5.05;;;10.60;99.90;;;;;;4941492;28;20126;-84
2024/02/06 07:25:42;;;;;;;11.98;5.80;;;10.60;99.90;;;;;;4957868;28;20039;-84
2024/02/06 07:28:07;;;;;;;11.30;5.88;;;10.60;99.90;;;;;;4957108;28;20380;-84
2024/02/06 07:30:33;;;;;;;10.57;5.05;;;10.60;99.90;;;;;;4957031;28;20031;-84
2024/02/06 07:32:59;;;;;;;14.45;6.13;;;10.60;99.90;;;;;;4941450;28;20027;-85
2024/02/06 07:35:25;;;;;;;11.50;5.05;;;10.60;99.90;;;;;;4957204;28;20089;-83
2024/02/06 07:37:50;;;;;;;8.90;4.78;;;10.60;99.90;;;;;;4973231;28;20042;-83
2024/02/06 07:40:16;;;;;;;12.82;5.35;;;10.60;99.90;;;;;;4941165;28;20529;-84
2024/02/06 07:42:43;;;;;;;12.85;5.70;;;10.60;99.90;;;;;;4957313;28;20114;-82
2024/02/06 07:45:09;;;;;;;9.90;5.20;;;10.50;99.90;;;;;;4957368;28;20041;-84
2024/02/06 07:47:34;;;;;;;11.25;5.80;;;10.50;99.90;;;;;;4972900;28;20398;-84
2024/02/06 07:50:00;;;;;;;13.82;5.30;;;10.50;99.90;;;;;;4941233;28;20035;-83
2024/02/06 07:52:26;;;;;;;9.52;4.95;;;10.50;99.90;;;;;;4973050;28;20038;-84
2024/02/06 07:54:52;;;;;;;11.43;5.30;;;10.50;99.90;;;;;;4957302;28;20034;-84
2024/02/06 07:57:17;;;;;;;11.13;5.50;;;10.50;99.90;;;;;;4956940;28;20113;-84
2024/02/06 07:59:43;;;;;;;11.73;6.07;;;10.50;99.90;;;;;;4956701;28;20035;-84
2024/02/06 08:02:09;;;;;;;16.02;7.00;;;10.50;99.90;;;;;;4974091;28;20034;-84
2024/02/06 08:04:34;;;;;;;13.65;6.45;;;10.50;99.90;;;;;;4941341;28;20034;-84
2024/02/06 08:07:00;;;;;;;9.88;6.03;;;10.50;99.90;;;;;;4957157;28;20542;-84
2024/02/06 08:09:25;;;;;;;12.20;6.00;;;10.50;99.90;;;;;;4941477;28;20030;-84
2024/02/06 08:11:52;;;;;;;13.82;5.78;;;10.50;99.90;;;;;;4941822;28;20483;-84
2024/02/06 08:14:18;;;;;;;12.02;5.47;;;10.50;99.90;;;;;;4958491;28;20054;-85
2024/02/06 08:16:43;;;;;;;10.55;5.93;;;10.50;99.90;;;;;;4975401;28;20463;-85
2024/02/06 08:19:09;;;;;;;11.27;5.28;;;10.50;99.90;;;;;;4975536;28;20043;-84
2024/02/06 08:21:35;;;;;;;10.52;5.22;;;10.50;99.90;;;;;;4949769;28;20063;-84
2024/02/06 08:24:01;;;;;;;10.55;5.10;;;10.50;99.90;;;;;;4979614;28;20038;-84
2024/02/06 08:26:27;;;;;;;9.48;5.07;;;10.50;99.90;;;;;;4980008;28;20026;-84
2024/02/06 08:28:55;;;;;;;14.93;5.95;;;10.60;99.90;;;;;;4980608;28;20031;-84
2024/02/06 08:31:22;;;;;;;15.15;5.75;;;10.50;99.90;;;;;;4985648;28;20070;-84
2024/02/06 08:33:49;;;;;;;12.05;5.68;;;10.60;99.90;;;;;;4944244;28;20395;-84
2024/02/06 08:36:15;;;;;;;14.25;6.20;;;10.60;99.90;;;;;;4961114;28;20122;-83
2024/02/06 08:38:41;;;;;;;11.30;5.45;;;10.60;99.90;;;;;;4976618;28;20034;-83
2024/02/06 08:41:08;;;;;;;10.55;4.85;;;10.50;99.90;;;;;;4976255;28;20027;-83
2024/02/06 08:43:34;;;;;;;11.43;5.07;;;10.50;99.90;;;;;;4976590;28;20038;-83
2024/02/06 08:46:00;;;;;;;14.18;5.82;;;10.50;99.90;;;;;;4976422;28;20049;-84
2024/02/06 08:48:29;;;;;;;14.65;5.47;;;10.50;99.90;;;;;;4976424;28;20467;-84
2024/02/06 08:50:55;;;;;;;9.27;4.82;;;10.60;99.90;;;;;;4975991;28;20035;-84
2024/02/06 08:53:21;;;;;;;14.93;5.43;;;10.60;99.90;;;;;;4944292;28;20038;-84
2024/02/06 08:55:48;;;;;;;12.30;5.25;;;10.60;99.90;;;;;;4976437;28;20037;-84
2024/02/06 08:58:14;;;;;;;13.40;5.53;;;10.60;99.90;;;;;;4974990;28;20524;-84
2024/02/06 09:00:40;;;;;;;12.70;5.00;;;10.60;99.90;;;;;;4977772;28;20039;-83
2024/02/06 09:03:06;;;;;;;12.07;5.03;;;10.60;99.90;;;;;;4960002;28;20438;-84
2024/02/06 09:05:32;;;;;;;10.38;4.93;;;10.60;99.90;;;;;;4960345;28;20039;-84
2024/02/06 09:08:01;;;;;;;12.65;4.97;;;10.60;99.90;;;;;;4959616;28;20042;-83
2024/02/06 09:10:27;;;;;;;13.25;4.80;;;10.60;99.90;;;;;;4975984;28;20070;-84
2024/02/06 09:12:56;;;;;;;14.68;4.72;;;10.70;99.90;;;;;;4943664;28;20050;-84
2024/02/06 09:15:22;;;;;;;14.07;5.65;;;10.70;99.90;;;;;;4959539;28;20035;-84
2024/02/06 09:17:48;;;;;;;14.73;5.18;;;10.70;99.90;;;;;;4959995;28;20031;-84
2024/02/06 09:20:14;;;;;;;13.20;6.00;;;10.70;99.90;;;;;;4975704;28;20504;-84
2024/02/06 09:22:40;;;;;;;14.50;4.68;;;10.70;99.90;;;;;;4959513;28;20046;-83
2024/02/06 09:25:07;;;;;;;15.18;4.80;;;10.70;99.90;;;;;;4977026;28;20030;-84
2024/02/06 09:27:33;;;;;;;13.00;4.20;;;10.70;99.90;;;;;;4959942;28;20035;-83
2024/02/06 09:29:58;;;;;;;17.35;5.07;;;10.70;99.90;;;;;;4960018;28;20041;-83
2024/02/06 09:32:24;;;;;;;13.52;4.45;;;10.80;99.90;;;;;;4943423;28;20114;-83
2024/02/06 09:34:51;;;;;;;15.65;4.80;;;10.80;99.90;;;;;;4959633;28;20038;-84
2024/02/06 09:37:17;;;;;;;11.23;4.30;;;10.80;99.90;;;;;;4975294;28;20029;-84
2024/02/06 09:39:43;;;;;;;12.02;4.38;;;10.80;99.90;;;;;;4959584;28;20022;-84
2024/02/06 09:42:12;;;;;;;9.20;4.38;;;10.90;99.90;;;;;;4975697;28;20026;-84
2024/02/06 09:44:38;;;;;;;14.57;5.13;;;10.90;99.90;;;;;;4943308;28;20031;-84
2024/02/06 09:47:03;;;;;;;10.25;4.00;;;10.90;99.90;;;;;;4958780;28;20031;-83
2024/02/06 09:49:30;;;;;;;12.77;4.57;;;10.90;99.90;;;;;;4975848;28;20034;-84
2024/02/06 09:51:56;;;;;;;11.43;3.72;;;11.00;99.90;;;;;;4961673;28;20077;-84
2024/02/06 09:54:25;;;;;;;12.75;3.25;;;11.00;99.90;;;;;;4976373;28;20034;-84
2024/02/06 09:56:56;;;;;;;11.77;3.97;;;11.00;99.90;;;;;;5000037;28;20062;-83
2024/02/06 09:59:23;;;;;;;8.38;3.38;;;11.10;99.90;;;;;;5019118;28;20038;-84
2024/02/06 10:01:51;;;;;;;7.32;2.80;;;11.10;99.90;;;;;;5000649;28;20030;-83
2024/02/06 10:04:21;;;;;;;11.02;3.50;;;11.20;99.90;;;;;;4984299;28;20038;-83
2024/02/06 10:06:47;;;;;;;9.75;3.25;;;11.20;99.90;;;;;;4978709;28;20030;-84
2024/02/06 10:09:14;;;;;;;8.20;3.45;;;11.30;99.90;;;;;;4962238;28;20030;-85
2024/02/06 10:11:41;;;;;;;9.18;3.15;;;11.30;99.90;;;;;;4962206;28;20045;-83
2024/02/06 10:14:06;;;;;;;8.70;3.47;;;11.40;99.90;;;;;;4978044;28;20113;-83
2024/02/06 10:16:32;;;;;;;10.98;3.60;;;11.40;99.90;;;;;;4961698;28;20509;-84
2024/02/06 10:18:59;;;;;;;6.15;3.50;;;11.40;99.90;;;;;;4962146;28;20026;-84
2024/02/06 10:21:26;;;;;;;14.13;4.25;;;11.40;99.90;;;;;;4977770;28;20058;-84
2024/02/06 10:24:00;;;;;;;10.23;3.78;;;11.50;99.90;;;;;;4977835;28;20046;-83
2024/02/06 10:26:26;;;;;;;10.85;4.30;;;11.50;99.90;;;;;;4977604;28;20027;-84
2024/02/06 10:29:11;;;;;;;12.30;4.13;;;11.50;99.90;;;;;;4977473;28;20389;-84
2024/02/06 10:31:40;;;;;;;10.15;4.40;;;11.50;99.90;;;;;;4994551;28;20022;-84
2024/02/06 10:34:10;;;;;;;8.45;4.13;;;11.50;99.90;;;;;;4978342;28;20039;-84
2024/02/06 10:36:39;;;;;;;12.00;4.18;;;11.60;99.90;;;;;;4961223;28;20025;-83
2024/02/06 10:39:06;;;;;;;7.60;4.20;;;11.60;99.90;;;;;;4961389;28;20065;-84
2024/02/06 10:41:32;;;;;;;12.07;4.70;;;11.60;99.90;;;;;;4961657;28;20026;-84
2024/02/06 10:43:58;;;;;;;11.38;4.28;;;11.60;99.90;;;;;;4977309;28;20037;-83
2024/02/06 10:46:24;;;;;;;13.43;4.10;;;11.70;99.90;;;;;;4977506;28;20026;-84
2024/02/06 10:49:01;;;;;;;14.93;4.82;;;11.70;99.90;;;;;;4961985;28;20033;-83
2024/02/06 10:51:26;;;;;;;12.70;5.32;;;11.80;99.90;;;;;;4995028;28;20069;-83
2024/02/06 10:53:52;;;;;;;10.85;4.18;;;11.80;99.90;;;;;;4961563;28;20038;-83
2024/02/06 10:56:19;;;;;;;11.40;4.45;;;11.80;99.90;;;;;;4978434;28;20536;-83
2024/02/06 10:58:57;;;;;;;10.05;5.20;;;11.90;99.90;;;;;;4957694;28;20118;-83
2024/02/06 11:01:34;;;;;;;13.00;4.22;;;12.00;99.90;;;;;;4959275;28;20038;-84
2024/02/06 11:04:12;;;;;;;15.73;4.35;;;12.00;99.90;;;;;;4975024;28;20089;-84
2024/02/06 11:06:45;;;;;;;9.23;3.97;;;12.00;99.90;;;;;;4958179;28;20030;-84
2024/02/06 11:09:14;;;;;;;12.25;4.55;;;12.10;99.90;;;;;;4974264;28;20074;-84
2024/02/06 11:11:41;;;;;;;12.43;4.32;;;12.10;99.90;;;;;;4974102;28;20023;-83
2024/02/06 11:14:10;;;;;;;15.25;4.57;;;12.10;99.90;;;;;;4974536;28;20041;-84
2024/02/06 11:16:44;;;;;;;13.70;4.03;;;12.20;99.90;;;;;;4974133;28;20180;-83
2024/02/06 11:19:29;;;;;;;9.25;4.20;;;12.20;99.90;;;;;;4975248;28;20098;-84
2024/02/06 11:22:05;;;;;;;11.27;3.42;;;12.30;99.90;;;;;;4974573;28;20022;-84
2024/02/06 11:24:31;;;;;;;11.52;3.75;;;12.30;99.90;;;;;;4976222;28;20027;-84
2024/02/06 11:26:58;;;;;;;12.00;4.10;;;12.30;99.90;;;;;;4991724;28;20094;-84
2024/02/06 11:29:24;;;;;;;13.50;4.00;;;12.30;99.90;;;;;;4998442;28;20031;-84
2024/02/06 11:31:50;;;;;;;10.60;3.72;;;12.40;99.90;;;;;;4981113;28;20083;-83
2024/02/06 11:34:19;;;;;;;11.13;3.25;;;12.30;99.90;;;;;;4970633;28;20039;-84
2024/02/06 11:36:46;;;;;;;9.18;4.20;;;12.40;99.90;;;;;;4974977;28;20625;-84
2024/02/06 11:39:12;;;;;;;14.05;3.70;;;12.40;99.90;;;;;;4973721;28;20078;-84
2024/02/06 11:41:39;;;;;;;12.20;4.30;;;12.30;99.90;;;;;;4973508;28;20031;-84
2024/02/06 11:44:12;;;;;;;8.20;4.03;;;12.30;99.90;;;;;;4973447;28;20121;-84
2024/02/06 11:46:49;;;;;;;11.00;4.00;;;12.30;99.90;;;;;;4973477;28;20037;-83
2024/02/06 11:49:22;;;;;;;9.35;3.90;;;12.20;99.90;;;;;;4973894;28;20161;-83
2024/02/06 11:51:55;;;;;;;9.93;4.25;;;12.20;99.90;;;;;;4957856;28;20019;-83
2024/02/06 11:54:22;;;;;;;9.85;4.03;;;12.20;99.90;;;;;;4957639;28;20479;-83
2024/02/06 11:56:48;;;;;;;11.13;4.07;;;12.30;99.90;;;;;;4957341;28;20483;-84
2024/02/06 11:59:14;;;;;;;9.02;3.15;;;12.20;99.90;;;;;;4956671;28;20066;-83
2024/02/06 12:01:41;;;;;;;8.13;3.38;;;12.20;99.90;;;;;;4957461;28;20023;-84
2024/02/06 12:04:08;;;;;;;6.57;2.42;;;12.20;99.90;;;;;;4973525;28;20042;-84
2024/02/06 12:06:34;;;;;;;8.60;3.35;;;12.20;99.90;;;;;;4957466;28;20053;-84
2024/02/06 12:09:10;;;;;;;10.13;2.72;;;12.20;99.90;;;;;;4958019;28;20378;-83
2024/02/06 12:11:40;;;;;;;9.02;3.30;;;12.20;99.90;;;;;;4977134;28;20042;-84
2024/02/06 12:14:05;;;;;;;6.68;3.10;;;12.20;99.90;;;;;;4978336;28;20467;-83
2024/02/06 12:16:31;;;;;;;8.70;2.40;;;12.20;99.90;;;;;;4976941;28;20086;-84
2024/02/06 12:18:59;;;;;;;5.70;2.78;;;12.10;99.90;;;;;;4976960;28;20035;-84
2024/02/06 12:21:25;;;;;;;7.18;2.78;;;12.10;99.90;;;;;;4977363;28;20467;-85
2024/02/06 12:24:04;;;;;;;10.40;2.70;;;12.10;99.90;;;;;;4976794;28;20089;-84
2024/02/06 12:26:33;;;;;;;7.85;2.65;;;12.20;99.90;;;;;;4976573;28;20037;-83
2024/02/06 12:29:06;;;;;;;8.65;2.90;;;12.20;99.90;;;;;;4961372;28;20118;-84
2024/02/06 12:31:40;;;;;;;6.15;2.70;;;12.20;99.90;;;;;;4978125;28;20035;-83
2024/02/06 12:34:08;;;;;;;7.38;2.95;;;12.20;99.90;;;;;;4978429;28;20026;-84
2024/02/06 12:36:34;;;;;;;9.93;3.15;;;12.20;99.90;;;;;;4977971;28;20027;-83